Island Heights, New Jersey
Current Conditions -  °F | °C
As of 12:35 PM on Thursday 30 Oct 2014 (Local Time) from KMJX Reporting Station
Clear Clear  
Wind Chill: 59°   Ceiling: Unl
Heat Index: 59°   Visibility: NA
Dew Point: 37°   Wind: 5mph
Humidity: 45%   Direction: 340°NNW
Pressure: 30"   Gusts: NA
Location:  39.94°N, 74.15°W
Report Text: KMJX 301635Z AUTO 34004KT CLR 15/03 A3000 RMK AO1
Loading
Personal Weather Stations






























Interactive Weather Map
Tropical Storm Tracking
New forecast layout! Learn more

10-Day Weather Forecast

Advertisements
Track Severe Weather on mobile